Aérodrome :
LOGIN :

S'inscrire | Disclaimer

   EN    FR    IT 

 










Légende :    VFR   VFR Marginal   IFR   IFR Intensif   IFR Très Intensif
Visi : 
Plafond : 
>= 8 km
>= 3000ft
5 à 8 km
1000 à 3000 ft
1500m à 5 km
500 à 1000 ft
800 à 1500m
200 à 500 ft
< 800m
< 200 ft
Symboles :   Orages  Brouillard  Fortes neiges  Fortes précipitations  Vent > 20 kt
SIGMETs :   Divers  Orages  Givrage  Turbulence  Onde Orograph.  Cendres Volcan.







- Altitude de l'aérodrome : 1273 ft
- Code IATA : LJU


LJLJ - Ljubljana

DERNIER METAR :
  • 212000Z VRB02KT CAVOK 11/03 Q1018 NOSIG

METARs EXPIRÉS :
  • 211930Z VRB02KT CAVOK 11/04 Q1018 NOSIG
  • 211900Z 15003KT 110V240 CAVOK 14/04 Q1018 NOSIG
  • 211830Z 12003KT 030V170 CAVOK 16/03 Q1017 NOSIG
  • 211800Z 24006KT CAVOK 18/03 Q1017 NOSIG
  • 211730Z 23006KT 9999 FEW070 SCT250 19/03 Q1017 NOSIG

TAF TAF LJLJ
Valide du 21 à 18h jusqu'au 22 à 18h UTC


211700Z 2118/2218 24005KT 9999 FEW070
BECMG 2118/2119 30003KT CAVOK
BECMG 2210/2212 24005KT FEW060
Pas de NOTAMs connus pour ce terrain.



MET'MAP, la Météo Aéronautique d'un coup d'oeil ! - Copyright ORBIFLY Décembre 2007 - Disclaimer

ORBIFLY MET'MAP TEAM :

Programmation & Développement : Alexandra Zaïnal
Conception & Développement : Baudouin d'Aumeries
Co-Programmation & Développement : Marc-Olivier Méhu
Soutien technique & logistique : Manuel Goepfert

Contact : metmap@orbifly.com




SOURCES & CREDITS :

   NOAA